sensor_id;sensor_type;location;lat;lon;timestamp;P1;durP1;ratioP1;P2;durP2;ratioP2
66371;SDS011;53168;51.146;17.120;2022-08-03T00:01:30;12.20;;;7.60;;
66371;SDS011;53168;51.146;17.120;2022-08-03T00:04:05;9.70;;;7.50;;
66371;SDS011;53168;51.146;17.120;2022-08-03T00:06:39;10.80;;;7.10;;
66371;SDS011;53168;51.146;17.120;2022-08-03T00:09:12;10.90;;;7.20;;
66371;SDS011;53168;51.146;17.120;2022-08-03T00:11:45;17.20;;;8.00;;
66371;SDS011;53168;51.146;17.120;2022-08-03T00:14:20;12.10;;;7.20;;
66371;SDS011;53168;51.146;17.120;2022-08-03T00:16:53;15.40;;;7.00;;
66371;SDS011;53168;51.146;17.120;2022-08-03T00:19:27;11.80;;;8.10;;
66371;SDS011;53168;51.146;17.120;2022-08-03T00:22:00;11.00;;;6.80;;
66371;SDS011;53168;51.146;17.120;2022-08-03T00:24:34;11.50;;;7.50;;
66371;SDS011;53168;51.146;17.120;2022-08-03T00:27:07;11.90;;;8.00;;
66371;SDS011;53168;51.146;17.120;2022-08-03T00:29:46;11.70;;;7.30;;
66371;SDS011;53168;51.146;17.120;2022-08-03T00:32:29;15.30;;;8.50;;
66371;SDS011;53168;51.146;17.120;2022-08-03T00:35:03;14.40;;;8.80;;
66371;SDS011;53168;51.146;17.120;2022-08-03T00:37:41;14.90;;;8.30;;
66371;SDS011;53168;51.146;17.120;2022-08-03T00:40:15;13.90;;;7.70;;
66371;SDS011;53168;51.146;17.120;2022-08-03T00:42:54;11.80;;;8.10;;
66371;SDS011;53168;51.146;17.120;2022-08-03T00:45:30;12.50;;;8.60;;
66371;SDS011;53168;51.146;17.120;2022-08-03T00:48:06;11.60;;;9.30;;
66371;SDS011;53168;51.146;17.120;2022-08-03T00:51:00;10.60;;;8.40;;
66371;SDS011;53168;51.146;17.120;2022-08-03T00:53:35;10.30;;;8.50;;
66371;SDS011;53168;51.146;17.120;2022-08-03T00:56:11;15.60;;;8.40;;
66371;SDS011;53168;51.146;17.120;2022-08-03T00:58:46;11.90;;;8.80;;
66371;SDS011;53168;51.146;17.120;2022-08-03T01:01:20;16.40;;;8.60;;
66371;SDS011;53168;51.146;17.120;2022-08-03T01:03:53;13.10;;;8.30;;
66371;SDS011;53168;51.146;17.120;2022-08-03T01:06:31;14.60;;;8.50;;
66371;SDS011;53168;51.146;17.120;2022-08-03T01:09:16;16.30;;;9.10;;
66371;SDS011;53168;51.146;17.120;2022-08-03T01:12:02;11.60;;;9.20;;
66371;SDS011;53168;51.146;17.120;2022-08-03T01:14:45;12.10;;;8.60;;
66371;SDS011;53168;51.146;17.120;2022-08-03T01:17:38;13.30;;;9.50;;
66371;SDS011;53168;51.146;17.120;2022-08-03T01:20:17;11.80;;;9.30;;
66371;SDS011;53168;51.146;17.120;2022-08-03T01:26:31;13.40;;;8.90;;
66371;SDS011;53168;51.146;17.120;2022-08-03T01:32:24;11.10;;;8.50;;
66371;SDS011;53168;51.146;17.120;2022-08-03T01:35:24;12.80;;;8.60;;
66371;SDS011;53168;51.146;17.120;2022-08-03T01:38:03;15.90;;;9.50;;
66371;SDS011;53168;51.146;17.120;2022-08-03T01:40:41;12.70;;;9.70;;
66371;SDS011;53168;51.146;17.120;2022-08-03T01:43:22;15.70;;;10.90;;
66371;SDS011;53168;51.146;17.120;2022-08-03T01:46:19;14.70;;;10.50;;
66371;SDS011;53168;51.146;17.120;2022-08-03T01:48:55;14.80;;;9.70;;
66371;SDS011;53168;51.146;17.120;2022-08-03T01:51:40;11.10;;;9.50;;
66371;SDS011;53168;51.146;17.120;2022-08-03T01:54:35;10.90;;;8.80;;
66371;SDS011;53168;51.146;17.120;2022-08-03T01:57:13;15.00;;;10.00;;
66371;SDS011;53168;51.146;17.120;2022-08-03T01:59:49;12.60;;;10.00;;
66371;SDS011;53168;51.146;17.120;2022-08-03T02:02:25;13.30;;;10.50;;
66371;SDS011;53168;51.146;17.120;2022-08-03T02:05:07;12.60;;;9.90;;
66371;SDS011;53168;51.146;17.120;2022-08-03T02:07:42;13.30;;;10.20;;
66371;SDS011;53168;51.146;17.120;2022-08-03T02:10:19;12.30;;;10.20;;
66371;SDS011;53168;51.146;17.120;2022-08-03T02:13:05;13.00;;;10.40;;
66371;SDS011;53168;51.146;17.120;2022-08-03T02:15:41;11.60;;;9.20;;
66371;SDS011;53168;51.146;17.120;2022-08-03T02:18:18;12.60;;;9.90;;
66371;SDS011;53168;51.146;17.120;2022-08-03T02:20:54;14.40;;;10.60;;
66371;SDS011;53168;51.146;17.120;2022-08-03T02:23:29;14.30;;;10.60;;
66371;SDS011;53168;51.146;17.120;2022-08-03T02:26:08;13.50;;;11.20;;
66371;SDS011;53168;51.146;17.120;2022-08-03T02:28:47;15.10;;;11.80;;
66371;SDS011;53168;51.146;17.120;2022-08-03T02:31:29;13.20;;;10.30;;
66371;SDS011;53168;51.146;17.120;2022-08-03T02:34:11;14.20;;;11.00;;
66371;SDS011;53168;51.146;17.120;2022-08-03T02:36:48;14.80;;;11.60;;
66371;SDS011;53168;51.146;17.120;2022-08-03T02:39:25;14.40;;;11.40;;
66371;SDS011;53168;51.146;17.120;2022-08-03T02:42:02;11.70;;;10.10;;
66371;SDS011;53168;51.146;17.120;2022-08-03T02:44:42;14.20;;;10.50;;
66371;SDS011;53168;51.146;17.120;2022-08-03T02:47:20;14.00;;;11.10;;
66371;SDS011;53168;51.146;17.120;2022-08-03T02:49:54;13.90;;;11.50;;
66371;SDS011;53168;51.146;17.120;2022-08-03T02:52:30;15.70;;;12.20;;
66371;SDS011;53168;51.146;17.120;2022-08-03T02:55:09;18.30;;;12.50;;
66371;SDS011;53168;51.146;17.120;2022-08-03T02:57:46;16.30;;;11.50;;
66371;SDS011;53168;51.146;17.120;2022-08-03T03:00:22;14.10;;;11.30;;
66371;SDS011;53168;51.146;17.120;2022-08-03T03:03:00;15.80;;;11.90;;
66371;SDS011;53168;51.146;17.120;2022-08-03T03:05:35;16.00;;;12.20;;
66371;SDS011;53168;51.146;17.120;2022-08-03T03:08:26;16.90;;;13.30;;
66371;SDS011;53168;51.146;17.120;2022-08-03T03:11:01;17.10;;;12.80;;
66371;SDS011;53168;51.146;17.120;2022-08-03T03:13:36;18.00;;;13.70;;
66371;SDS011;53168;51.146;17.120;2022-08-03T03:16:18;17.70;;;13.00;;
66371;SDS011;53168;51.146;17.120;2022-08-03T03:18:54;15.20;;;12.40;;
66371;SDS011;53168;51.146;17.120;2022-08-03T03:21:29;18.50;;;13.00;;
66371;SDS011;53168;51.146;17.120;2022-08-03T03:24:05;16.20;;;12.50;;
66371;SDS011;53168;51.146;17.120;2022-08-03T03:26:40;17.50;;;13.20;;
66371;SDS011;53168;51.146;17.120;2022-08-03T03:29:15;17.80;;;14.50;;
66371;SDS011;53168;51.146;17.120;2022-08-03T03:31:49;17.00;;;12.70;;
66371;SDS011;53168;51.146;17.120;2022-08-03T03:34:24;17.40;;;12.90;;
66371;SDS011;53168;51.146;17.120;2022-08-03T03:36:59;15.80;;;13.50;;
66371;SDS011;53168;51.146;17.120;2022-08-03T03:39:34;17.50;;;12.70;;
66371;SDS011;53168;51.146;17.120;2022-08-03T03:42:08;20.30;;;14.00;;
66371;SDS011;53168;51.146;17.120;2022-08-03T03:44:42;18.80;;;13.40;;
66371;SDS011;53168;51.146;17.120;2022-08-03T03:47:15;21.30;;;14.30;;
66371;SDS011;53168;51.146;17.120;2022-08-03T03:50:04;20.20;;;14.90;;
66371;SDS011;53168;51.146;17.120;2022-08-03T03:52:40;18.10;;;14.20;;
66371;SDS011;53168;51.146;17.120;2022-08-03T03:55:17;18.20;;;13.60;;
66371;SDS011;53168;51.146;17.120;2022-08-03T03:57:51;19.20;;;13.50;;
66371;SDS011;53168;51.146;17.120;2022-08-03T04:00:25;21.20;;;13.70;;
66371;SDS011;53168;51.146;17.120;2022-08-03T04:02:59;14.80;;;12.50;;
66371;SDS011;53168;51.146;17.120;2022-08-03T04:05:33;16.20;;;13.50;;
66371;SDS011;53168;51.146;17.120;2022-08-03T04:08:24;20.50;;;14.20;;
66371;SDS011;53168;51.146;17.120;2022-08-03T04:11:25;18.60;;;13.80;;
66371;SDS011;53168;51.146;17.120;2022-08-03T04:14:08;16.80;;;13.10;;
66371;SDS011;53168;51.146;17.120;2022-08-03T04:16:48;16.30;;;12.60;;
66371;SDS011;53168;51.146;17.120;2022-08-03T04:19:29;16.50;;;13.00;;
66371;SDS011;53168;51.146;17.120;2022-08-03T04:22:10;20.70;;;14.70;;
66371;SDS011;53168;51.146;17.120;2022-08-03T04:24:50;17.40;;;13.60;;
66371;SDS011;53168;51.146;17.120;2022-08-03T04:27:33;16.60;;;13.10;;
66371;SDS011;53168;51.146;17.120;2022-08-03T04:30:11;15.40;;;13.40;;
66371;SDS011;53168;51.146;17.120;2022-08-03T04:32:46;16.70;;;12.90;;
66371;SDS011;53168;51.146;17.120;2022-08-03T04:35:22;17.80;;;12.60;;
66371;SDS011;53168;51.146;17.120;2022-08-03T04:38:19;16.20;;;13.20;;
66371;SDS011;53168;51.146;17.120;2022-08-03T04:40:56;14.70;;;12.20;;
66371;SDS011;53168;51.146;17.120;2022-08-03T04:43:32;17.70;;;13.60;;
66371;SDS011;53168;51.146;17.120;2022-08-03T04:46:09;22.80;;;13.30;;
66371;SDS011;53168;51.146;17.120;2022-08-03T04:48:43;16.00;;;12.20;;
66371;SDS011;53168;51.146;17.120;2022-08-03T04:51:17;16.90;;;13.30;;
66371;SDS011;53168;51.146;17.120;2022-08-03T04:53:52;16.70;;;13.00;;
66371;SDS011;53168;51.146;17.120;2022-08-03T04:56:25;20.30;;;12.90;;
66371;SDS011;53168;51.146;17.120;2022-08-03T04:58:59;20.00;;;13.70;;
66371;SDS011;53168;51.146;17.120;2022-08-03T05:01:32;16.10;;;11.90;;
66371;SDS011;53168;51.146;17.120;2022-08-03T05:04:05;19.00;;;13.10;;
66371;SDS011;53168;51.146;17.120;2022-08-03T05:06:39;18.10;;;13.00;;
66371;SDS011;53168;51.146;17.120;2022-08-03T05:09:24;17.20;;;12.30;;
66371;SDS011;53168;51.146;17.120;2022-08-03T05:14:49;16.40;;;11.40;;
66371;SDS011;53168;51.146;17.120;2022-08-03T05:17:22;16.20;;;12.90;;
66371;SDS011;53168;51.146;17.120;2022-08-03T05:19:55;16.30;;;12.80;;
66371;SDS011;53168;51.146;17.120;2022-08-03T05:22:29;16.10;;;11.30;;
66371;SDS011;53168;51.146;17.120;2022-08-03T05:25:02;18.00;;;12.20;;
66371;SDS011;53168;51.146;17.120;2022-08-03T05:27:36;15.80;;;12.00;;
66371;SDS011;53168;51.146;17.120;2022-08-03T05:30:10;18.00;;;12.00;;
66371;SDS011;53168;51.146;17.120;2022-08-03T05:33:04;15.60;;;11.90;;
66371;SDS011;53168;51.146;17.120;2022-08-03T05:35:37;18.30;;;12.30;;
66371;SDS011;53168;51.146;17.120;2022-08-03T05:38:31;15.30;;;11.30;;
66371;SDS011;53168;51.146;17.120;2022-08-03T05:41:05;13.10;;;10.00;;
66371;SDS011;53168;51.146;17.120;2022-08-03T05:43:54;16.80;;;10.40;;
66371;SDS011;53168;51.146;17.120;2022-08-03T05:46:27;11.90;;;10.60;;
66371;SDS011;53168;51.146;17.120;2022-08-03T05:49:01;13.60;;;9.20;;
66371;SDS011;53168;51.146;17.120;2022-08-03T05:51:35;12.60;;;9.90;;
66371;SDS011;53168;51.146;17.120;2022-08-03T05:54:08;11.90;;;9.10;;
66371;SDS011;53168;51.146;17.120;2022-08-03T05:56:41;12.30;;;10.30;;
66371;SDS011;53168;51.146;17.120;2022-08-03T05:59:16;13.50;;;9.90;;
66371;SDS011;53168;51.146;17.120;2022-08-03T06:02:07;11.50;;;9.10;;
66371;SDS011;53168;51.146;17.120;2022-08-03T06:04:41;11.00;;;8.60;;
66371;SDS011;53168;51.146;17.120;2022-08-03T06:07:14;10.30;;;9.20;;
66371;SDS011;53168;51.146;17.120;2022-08-03T06:09:48;10.00;;;8.50;;
66371;SDS011;53168;51.146;17.120;2022-08-03T06:12:42;13.80;;;8.40;;
66371;SDS011;53168;51.146;17.120;2022-08-03T06:15:18;12.20;;;9.50;;
66371;SDS011;53168;51.146;17.120;2022-08-03T06:17:52;10.00;;;8.20;;
66371;SDS011;53168;51.146;17.120;2022-08-03T06:20:31;17.30;;;8.80;;
66371;SDS011;53168;51.146;17.120;2022-08-03T06:23:04;11.50;;;9.10;;
66371;SDS011;53168;51.146;17.120;2022-08-03T06:25:47;11.40;;;8.20;;
66371;SDS011;53168;51.146;17.120;2022-08-03T06:28:21;8.70;;;7.70;;
66371;SDS011;53168;51.146;17.120;2022-08-03T06:31:14;9.10;;;7.70;;
66371;SDS011;53168;51.146;17.120;2022-08-03T06:33:47;11.70;;;8.40;;
66371;SDS011;53168;51.146;17.120;2022-08-03T06:36:41;12.20;;;7.90;;
66371;SDS011;53168;51.146;17.120;2022-08-03T06:39:14;9.90;;;7.50;;
66371;SDS011;53168;51.146;17.120;2022-08-03T06:41:48;11.90;;;8.10;;
66371;SDS011;53168;51.146;17.120;2022-08-03T06:44:24;9.70;;;7.30;;
66371;SDS011;53168;51.146;17.120;2022-08-03T06:46:57;8.90;;;7.50;;
66371;SDS011;53168;51.146;17.120;2022-08-03T06:49:31;9.30;;;7.00;;
66371;SDS011;53168;51.146;17.120;2022-08-03T06:52:07;9.50;;;7.40;;
66371;SDS011;53168;51.146;17.120;2022-08-03T06:54:40;8.30;;;7.30;;
66371;SDS011;53168;51.146;17.120;2022-08-03T06:57:15;8.50;;;6.80;;
66371;SDS011;53168;51.146;17.120;2022-08-03T06:59:49;8.20;;;7.00;;
66371;SDS011;53168;51.146;17.120;2022-08-03T07:02:43;8.10;;;7.30;;
66371;SDS011;53168;51.146;17.120;2022-08-03T07:05:25;9.70;;;6.90;;
66371;SDS011;53168;51.146;17.120;2022-08-03T07:08:01;8.20;;;7.40;;
66371;SDS011;53168;51.146;17.120;2022-08-03T07:10:34;10.40;;;8.20;;
66371;SDS011;53168;51.146;17.120;2022-08-03T07:13:09;10.90;;;7.50;;
66371;SDS011;53168;51.146;17.120;2022-08-03T07:15:45;9.90;;;7.80;;
66371;SDS011;53168;51.146;17.120;2022-08-03T07:18:25;9.20;;;7.10;;
66371;SDS011;53168;51.146;17.120;2022-08-03T07:20:59;9.50;;;7.00;;
66371;SDS011;53168;51.146;17.120;2022-08-03T07:23:33;10.10;;;6.70;;
66371;SDS011;53168;51.146;17.120;2022-08-03T07:26:06;8.10;;;6.50;;
66371;SDS011;53168;51.146;17.120;2022-08-03T07:28:39;8.50;;;7.30;;
66371;SDS011;53168;51.146;17.120;2022-08-03T07:31:13;7.50;;;6.70;;
66371;SDS011;53168;51.146;17.120;2022-08-03T07:33:46;11.50;;;7.50;;
66371;SDS011;53168;51.146;17.120;2022-08-03T07:36:20;10.10;;;7.20;;
66371;SDS011;53168;51.146;17.120;2022-08-03T07:38:54;8.80;;;7.30;;
66371;SDS011;53168;51.146;17.120;2022-08-03T07:41:28;9.60;;;6.90;;
66371;SDS011;53168;51.146;17.120;2022-08-03T07:44:02;7.90;;;6.90;;
66371;SDS011;53168;51.146;17.120;2022-08-03T07:46:35;6.90;;;6.20;;
66371;SDS011;53168;51.146;17.120;2022-08-03T07:49:08;10.10;;;7.20;;
66371;SDS011;53168;51.146;17.120;2022-08-03T07:51:42;8.40;;;6.90;;
66371;SDS011;53168;51.146;17.120;2022-08-03T07:54:15;8.20;;;7.00;;
66371;SDS011;53168;51.146;17.120;2022-08-03T07:56:49;8.10;;;6.70;;
66371;SDS011;53168;51.146;17.120;2022-08-03T07:59:22;9.30;;;6.60;;
66371;SDS011;53168;51.146;17.120;2022-08-03T08:01:55;9.80;;;6.90;;
66371;SDS011;53168;51.146;17.120;2022-08-03T08:04:29;9.60;;;6.30;;
66371;SDS011;53168;51.146;17.120;2022-08-03T08:07:02;9.80;;;6.20;;
66371;SDS011;53168;51.146;17.120;2022-08-03T08:09:35;7.30;;;6.00;;
66371;SDS011;53168;51.146;17.120;2022-08-03T08:12:08;6.90;;;5.90;;
66371;SDS011;53168;51.146;17.120;2022-08-03T08:14:45;7.10;;;5.70;;
66371;SDS011;53168;51.146;17.120;2022-08-03T08:17:18;7.80;;;6.20;;
66371;SDS011;53168;51.146;17.120;2022-08-03T08:19:51;7.60;;;5.90;;
66371;SDS011;53168;51.146;17.120;2022-08-03T08:22:25;9.80;;;6.20;;
66371;SDS011;53168;51.146;17.120;2022-08-03T08:25:00;9.30;;;5.70;;
66371;SDS011;53168;51.146;17.120;2022-08-03T08:27:34;9.20;;;5.70;;
66371;SDS011;53168;51.146;17.120;2022-08-03T08:30:34;5.70;;;5.10;;
66371;SDS011;53168;51.146;17.120;2022-08-03T08:33:07;5.30;;;4.70;;
66371;SDS011;53168;51.146;17.120;2022-08-03T08:35:53;6.20;;;5.30;;
66371;SDS011;53168;51.146;17.120;2022-08-03T08:38:26;7.30;;;4.50;;
66371;SDS011;53168;51.146;17.120;2022-08-03T08:41:00;7.60;;;5.20;;
66371;SDS011;53168;51.146;17.120;2022-08-03T08:43:33;5.90;;;4.90;;
66371;SDS011;53168;51.146;17.120;2022-08-03T08:46:07;5.60;;;5.10;;
66371;SDS011;53168;51.146;17.120;2022-08-03T08:48:54;6.60;;;5.00;;
66371;SDS011;53168;51.146;17.120;2022-08-03T08:51:35;7.00;;;5.00;;
66371;SDS011;53168;51.146;17.120;2022-08-03T08:54:29;6.10;;;4.70;;
66371;SDS011;53168;51.146;17.120;2022-08-03T08:57:04;5.80;;;4.70;;
66371;SDS011;53168;51.146;17.120;2022-08-03T09:00:02;7.30;;;4.50;;
66371;SDS011;53168;51.146;17.120;2022-08-03T09:02:38;7.00;;;5.00;;
66371;SDS011;53168;51.146;17.120;2022-08-03T09:05:13;7.00;;;4.80;;
66371;SDS011;53168;51.146;17.120;2022-08-03T09:07:48;6.20;;;4.80;;
66371;SDS011;53168;51.146;17.120;2022-08-03T09:10:22;7.80;;;4.70;;
66371;SDS011;53168;51.146;17.120;2022-08-03T09:12:55;6.30;;;4.60;;
66371;SDS011;53168;51.146;17.120;2022-08-03T09:15:32;6.60;;;4.40;;
66371;SDS011;53168;51.146;17.120;2022-08-03T09:18:05;6.40;;;4.90;;
66371;SDS011;53168;51.146;17.120;2022-08-03T09:20:38;7.40;;;4.40;;
66371;SDS011;53168;51.146;17.120;2022-08-03T09:23:12;4.80;;;4.30;;
66371;SDS011;53168;51.146;17.120;2022-08-03T09:26:07;4.80;;;4.30;;
66371;SDS011;53168;51.146;17.120;2022-08-03T09:28:40;5.10;;;4.30;;
66371;SDS011;53168;51.146;17.120;2022-08-03T09:31:33;5.40;;;4.40;;
66371;SDS011;53168;51.146;17.120;2022-08-03T09:34:09;5.00;;;4.40;;
66371;SDS011;53168;51.146;17.120;2022-08-03T09:36:58;4.70;;;4.30;;
66371;SDS011;53168;51.146;17.120;2022-08-03T09:39:37;4.70;;;4.10;;
66371;SDS011;53168;51.146;17.120;2022-08-03T09:42:13;8.60;;;4.40;;
66371;SDS011;53168;51.146;17.120;2022-08-03T09:47:53;5.60;;;4.70;;
66371;SDS011;53168;51.146;17.120;2022-08-03T09:50:29;5.90;;;4.30;;
66371;SDS011;53168;51.146;17.120;2022-08-03T09:53:44;5.00;;;4.30;;
66371;SDS011;53168;51.146;17.120;2022-08-03T09:56:40;5.20;;;4.40;;
66371;SDS011;53168;51.146;17.120;2022-08-03T09:59:24;6.30;;;4.30;;
66371;SDS011;53168;51.146;17.120;2022-08-03T10:02:01;7.10;;;4.20;;
66371;SDS011;53168;51.146;17.120;2022-08-03T10:04:34;8.30;;;4.20;;
66371;SDS011;53168;51.146;17.120;2022-08-03T10:07:21;4.70;;;4.20;;
66371;SDS011;53168;51.146;17.120;2022-08-03T10:09:57;7.20;;;3.90;;
66371;SDS011;53168;51.146;17.120;2022-08-03T10:12:51;4.80;;;4.30;;
66371;SDS011;53168;51.146;17.120;2022-08-03T10:15:25;4.60;;;4.10;;
66371;SDS011;53168;51.146;17.120;2022-08-03T10:18:19;4.60;;;4.10;;
66371;SDS011;53168;51.146;17.120;2022-08-03T10:20:57;4.60;;;4.20;;
66371;SDS011;53168;51.146;17.120;2022-08-03T10:23:35;5.30;;;4.20;;
66371;SDS011;53168;51.146;17.120;2022-08-03T10:26:15;5.50;;;3.90;;
66371;SDS011;53168;51.146;17.120;2022-08-03T10:28:52;4.20;;;3.80;;
66371;SDS011;53168;51.146;17.120;2022-08-03T10:31:32;5.40;;;3.90;;
66371;SDS011;53168;51.146;17.120;2022-08-03T10:34:31;5.10;;;4.40;;
66371;SDS011;53168;51.146;17.120;2022-08-03T10:37:16;4.10;;;3.80;;
66371;SDS011;53168;51.146;17.120;2022-08-03T10:39:52;5.80;;;4.20;;
66371;SDS011;53168;51.146;17.120;2022-08-03T10:42:28;4.50;;;4.10;;
66371;SDS011;53168;51.146;17.120;2022-08-03T10:45:06;4.90;;;3.80;;
66371;SDS011;53168;51.146;17.120;2022-08-03T10:47:45;4.30;;;3.90;;
66371;SDS011;53168;51.146;17.120;2022-08-03T10:50:21;4.50;;;3.90;;
66371;SDS011;53168;51.146;17.120;2022-08-03T10:53:01;4.30;;;3.90;;
66371;SDS011;53168;51.146;17.120;2022-08-03T10:55:38;5.70;;;4.10;;
66371;SDS011;53168;51.146;17.120;2022-08-03T10:58:51;4.80;;;4.40;;
66371;SDS011;53168;51.146;17.120;2022-08-03T11:01:50;4.60;;;4.20;;
66371;SDS011;53168;51.146;17.120;2022-08-03T11:04:30;5.20;;;4.40;;
66371;SDS011;53168;51.146;17.120;2022-08-03T11:07:22;4.70;;;4.00;;
66371;SDS011;53168;51.146;17.120;2022-08-03T11:09:56;4.10;;;3.70;;
66371;SDS011;53168;51.146;17.120;2022-08-03T11:12:31;3.90;;;3.50;;
66371;SDS011;53168;51.146;17.120;2022-08-03T11:15:07;4.70;;;4.10;;
66371;SDS011;53168;51.146;17.120;2022-08-03T11:18:08;4.30;;;3.90;;
66371;SDS011;53168;51.146;17.120;2022-08-03T11:20:50;4.50;;;3.90;;
66371;SDS011;53168;51.146;17.120;2022-08-03T11:23:44;3.80;;;3.50;;
66371;SDS011;53168;51.146;17.120;2022-08-03T11:26:35;6.20;;;4.10;;
66371;SDS011;53168;51.146;17.120;2022-08-03T11:29:34;13.00;;;4.30;;
66371;SDS011;53168;51.146;17.120;2022-08-03T11:32:07;4.70;;;3.60;;
66371;SDS011;53168;51.146;17.120;2022-08-03T11:35:07;4.10;;;3.70;;
66371;SDS011;53168;51.146;17.120;2022-08-03T11:38:06;4.60;;;4.20;;
66371;SDS011;53168;51.146;17.120;2022-08-03T11:40:44;4.30;;;3.80;;
66371;SDS011;53168;51.146;17.120;2022-08-03T11:43:45;4.30;;;3.90;;
66371;SDS011;53168;51.146;17.120;2022-08-03T11:46:19;4.10;;;3.70;;
66371;SDS011;53168;51.146;17.120;2022-08-03T11:49:04;4.40;;;3.70;;
66371;SDS011;53168;51.146;17.120;2022-08-03T11:51:40;4.30;;;3.90;;
66371;SDS011;53168;51.146;17.120;2022-08-03T11:54:22;4.10;;;3.70;;
66371;SDS011;53168;51.146;17.120;2022-08-03T11:56:55;5.20;;;3.90;;
66371;SDS011;53168;51.146;17.120;2022-08-03T11:59:34;4.70;;;3.60;;
66371;SDS011;53168;51.146;17.120;2022-08-03T12:02:09;4.30;;;3.90;;
66371;SDS011;53168;51.146;17.120;2022-08-03T12:04:52;6.30;;;3.70;;
66371;SDS011;53168;51.146;17.120;2022-08-03T12:07:29;3.50;;;3.20;;
66371;SDS011;53168;51.146;17.120;2022-08-03T12:10:22;4.00;;;3.30;;
66371;SDS011;53168;51.146;17.120;2022-08-03T12:13:00;4.40;;;3.30;;
66371;SDS011;53168;51.146;17.120;2022-08-03T12:15:58;5.60;;;4.00;;
66371;SDS011;53168;51.146;17.120;2022-08-03T12:18:33;5.30;;;3.60;;
66371;SDS011;53168;51.146;17.120;2022-08-03T12:21:08;7.90;;;4.00;;
66371;SDS011;53168;51.146;17.120;2022-08-03T12:23:42;5.80;;;3.80;;
66371;SDS011;53168;51.146;17.120;2022-08-03T12:26:15;3.60;;;3.10;;
66371;SDS011;53168;51.146;17.120;2022-08-03T12:28:49;3.00;;;2.70;;
66371;SDS011;53168;51.146;17.120;2022-08-03T12:31:22;3.40;;;2.60;;
66371;SDS011;53168;51.146;17.120;2022-08-03T12:33:57;3.50;;;2.80;;
66371;SDS011;53168;51.146;17.120;2022-08-03T12:36:34;3.60;;;2.50;;
66371;SDS011;53168;51.146;17.120;2022-08-03T12:39:09;5.40;;;2.70;;
66371;SDS011;53168;51.146;17.120;2022-08-03T12:41:43;3.50;;;2.70;;
66371;SDS011;53168;51.146;17.120;2022-08-03T12:44:16;2.60;;;2.40;;
66371;SDS011;53168;51.146;17.120;2022-08-03T12:47:00;2.90;;;2.50;;
66371;SDS011;53168;51.146;17.120;2022-08-03T12:49:47;3.80;;;2.80;;
66371;SDS011;53168;51.146;17.120;2022-08-03T12:52:22;3.20;;;2.60;;
66371;SDS011;53168;51.146;17.120;2022-08-03T12:54:57;6.50;;;2.30;;
66371;SDS011;53168;51.146;17.120;2022-08-03T12:57:42;2.90;;;2.30;;
66371;SDS011;53168;51.146;17.120;2022-08-03T13:00:17;4.20;;;2.50;;
66371;SDS011;53168;51.146;17.120;2022-08-03T13:03:03;3.00;;;2.40;;
66371;SDS011;53168;51.146;17.120;2022-08-03T13:05:57;2.90;;;2.30;;
66371;SDS011;53168;51.146;17.120;2022-08-03T13:08:31;4.00;;;2.30;;
66371;SDS011;53168;51.146;17.120;2022-08-03T13:24:52;2.50;;;2.30;;
66371;SDS011;53168;51.146;17.120;2022-08-03T13:27:28;3.00;;;2.40;;
66371;SDS011;53168;51.146;17.120;2022-08-03T13:30:22;3.10;;;2.20;;
66371;SDS011;53168;51.146;17.120;2022-08-03T13:33:03;3.10;;;2.40;;
66371;SDS011;53168;51.146;17.120;2022-08-03T13:35:36;3.80;;;2.40;;
66371;SDS011;53168;51.146;17.120;2022-08-03T13:38:09;3.60;;;2.40;;
66371;SDS011;53168;51.146;17.120;2022-08-03T13:40:46;3.10;;;2.20;;
66371;SDS011;53168;51.146;17.120;2022-08-03T13:43:21;3.40;;;2.20;;
66371;SDS011;53168;51.146;17.120;2022-08-03T13:45:54;4.20;;;2.40;;
66371;SDS011;53168;51.146;17.120;2022-08-03T13:48:28;4.80;;;2.40;;
66371;SDS011;53168;51.146;17.120;2022-08-03T13:51:07;3.40;;;2.40;;
66371;SDS011;53168;51.146;17.120;2022-08-03T13:53:52;3.70;;;2.50;;
66371;SDS011;53168;51.146;17.120;2022-08-03T13:56:26;4.90;;;2.10;;
66371;SDS011;53168;51.146;17.120;2022-08-03T13:59:00;3.10;;;2.40;;
66371;SDS011;53168;51.146;17.120;2022-08-03T14:01:34;6.00;;;4.90;;
66371;SDS011;53168;51.146;17.120;2022-08-03T14:04:25;3.00;;;2.50;;
66371;SDS011;53168;51.146;17.120;2022-08-03T14:06:58;2.70;;;2.30;;
66371;SDS011;53168;51.146;17.120;2022-08-03T14:09:31;2.80;;;2.40;;
66371;SDS011;53168;51.146;17.120;2022-08-03T14:12:05;2.50;;;2.30;;
66371;SDS011;53168;51.146;17.120;2022-08-03T14:14:39;2.30;;;2.10;;
66371;SDS011;53168;51.146;17.120;2022-08-03T14:17:12;3.80;;;2.20;;
66371;SDS011;53168;51.146;17.120;2022-08-03T14:19:46;8.40;;;2.60;;
66371;SDS011;53168;51.146;17.120;2022-08-03T14:22:23;3.30;;;2.50;;
66371;SDS011;53168;51.146;17.120;2022-08-03T14:24:56;4.40;;;2.40;;
66371;SDS011;53168;51.146;17.120;2022-08-03T14:27:30;2.80;;;2.10;;
66371;SDS011;53168;51.146;17.120;2022-08-03T14:30:05;3.20;;;2.20;;
66371;SDS011;53168;51.146;17.120;2022-08-03T14:32:39;2.70;;;2.50;;
66371;SDS011;53168;51.146;17.120;2022-08-03T14:35:13;3.70;;;2.60;;
66371;SDS011;53168;51.146;17.120;2022-08-03T14:37:46;2.50;;;2.30;;
66371;SDS011;53168;51.146;17.120;2022-08-03T14:40:20;4.00;;;2.20;;
66371;SDS011;53168;51.146;17.120;2022-08-03T14:42:53;3.30;;;2.40;;
66371;SDS011;53168;51.146;17.120;2022-08-03T14:45:26;2.80;;;2.50;;
66371;SDS011;53168;51.146;17.120;2022-08-03T14:48:00;3.60;;;2.40;;
66371;SDS011;53168;51.146;17.120;2022-08-03T14:50:54;3.60;;;2.50;;
66371;SDS011;53168;51.146;17.120;2022-08-03T14:53:27;3.80;;;2.30;;
66371;SDS011;53168;51.146;17.120;2022-08-03T14:56:00;6.20;;;2.50;;
66371;SDS011;53168;51.146;17.120;2022-08-03T14:58:39;4.40;;;2.30;;
66371;SDS011;53168;51.146;17.120;2022-08-03T15:01:13;5.60;;;2.40;;
66371;SDS011;53168;51.146;17.120;2022-08-03T15:04:06;4.00;;;2.50;;
66371;SDS011;53168;51.146;17.120;2022-08-03T15:06:39;2.50;;;2.30;;
66371;SDS011;53168;51.146;17.120;2022-08-03T15:09:17;3.20;;;2.60;;
66371;SDS011;53168;51.146;17.120;2022-08-03T15:11:53;3.70;;;2.40;;
66371;SDS011;53168;51.146;17.120;2022-08-03T15:14:26;3.50;;;2.40;;
66371;SDS011;53168;51.146;17.120;2022-08-03T15:17:04;4.40;;;2.20;;
66371;SDS011;53168;51.146;17.120;2022-08-03T15:19:38;3.30;;;2.40;;
66371;SDS011;53168;51.146;17.120;2022-08-03T15:22:31;4.50;;;2.60;;
66371;SDS011;53168;51.146;17.120;2022-08-03T15:25:08;3.40;;;2.50;;
66371;SDS011;53168;51.146;17.120;2022-08-03T15:28:02;3.30;;;2.30;;
66371;SDS011;53168;51.146;17.120;2022-08-03T15:30:35;6.70;;;2.80;;
66371;SDS011;53168;51.146;17.120;2022-08-03T15:33:09;2.90;;;2.50;;
66371;SDS011;53168;51.146;17.120;2022-08-03T15:35:45;3.40;;;2.70;;
66371;SDS011;53168;51.146;17.120;2022-08-03T15:38:21;4.60;;;2.30;;
66371;SDS011;53168;51.146;17.120;2022-08-03T15:40:56;3.40;;;2.50;;
66371;SDS011;53168;51.146;17.120;2022-08-03T15:43:29;3.40;;;2.40;;
66371;SDS011;53168;51.146;17.120;2022-08-03T15:46:07;4.80;;;3.40;;
66371;SDS011;53168;51.146;17.120;2022-08-03T15:48:58;3.50;;;2.50;;
66371;SDS011;53168;51.146;17.120;2022-08-03T15:51:32;6.00;;;2.70;;
66371;SDS011;53168;51.146;17.120;2022-08-03T15:54:06;6.50;;;2.80;;
66371;SDS011;53168;51.146;17.120;2022-08-03T15:56:40;5.90;;;2.60;;
66371;SDS011;53168;51.146;17.120;2022-08-03T15:59:15;4.40;;;3.00;;